Whitney, Canada
Current Conditions -  °F | °C
As of 7:29 PM on Monday 24 Nov 2014 (Local Time) from CYWA Reporting Station
Overcast Overcast  
Wind Chill: 55°   Ceiling: 3100
Heat Index: 55°   Visibility: 9mi
Dew Point: 45°   Wind: 17mph
Humidity: 67%   Direction: 230°SW
Pressure: 29.14"   Gusts: 24mph
Location:  45.5°N, 78.23°W
Report Text: CYWA 250029Z AUTO 23015G21KT 9SM OVC031 OVC074 13/07 A2914
Loading
Personal Weather Stations






























Interactive Weather Map New forecast layout! Learn more

10-Day Weather Forecast

Advertisements
Track Severe Weather on mobile